createdAt,value
2019-04-11T00:00:13.714Z,99.90
2019-04-11T00:02:42.156Z,99.90
2019-04-11T00:05:10.704Z,99.90
2019-04-11T00:07:39.153Z,99.90
2019-04-11T00:10:08.458Z,99.90
2019-04-11T00:12:36.992Z,99.90
2019-04-11T00:15:06.412Z,99.90
2019-04-11T00:17:36.193Z,99.90
2019-04-11T00:20:05.772Z,99.90
2019-04-11T00:22:35.320Z,99.90
2019-04-11T00:25:04.140Z,99.90
2019-04-11T00:27:32.959Z,99.90
2019-04-11T00:30:03.868Z,99.90
2019-04-11T00:32:33.569Z,99.90
2019-04-11T00:35:03.578Z,99.90
2019-04-11T00:37:32.802Z,99.90
2019-04-11T00:40:01.825Z,99.90
2019-04-11T00:42:30.484Z,99.90
2019-04-11T00:44:59.148Z,99.90
2019-04-11T00:47:27.708Z,99.90
2019-04-11T00:49:56.858Z,99.90
2019-04-11T00:52:25.499Z,99.90
2019-04-11T00:54:53.964Z,99.90
2019-04-11T00:57:23.054Z,99.90
2019-04-11T00:59:51.644Z,99.90
2019-04-11T01:02:21.046Z,99.90
2019-04-11T01:04:50.776Z,99.90
2019-04-11T01:07:19.591Z,99.90
2019-04-11T01:09:48.585Z,99.90
2019-04-11T01:12:17.233Z,99.90
2019-04-11T01:14:46.828Z,99.90
2019-04-11T01:17:15.433Z,99.90
2019-04-11T01:19:43.939Z,99.90
2019-04-11T01:22:12.414Z,99.90
2019-04-11T01:24:41.953Z,99.90
2019-04-11T01:27:11.787Z,99.90
2019-04-11T01:29:40.496Z,99.90
2019-04-11T01:32:10.680Z,99.90
2019-04-11T01:34:40.356Z,99.90
2019-04-11T01:37:09.274Z,99.90
2019-04-11T01:39:43.289Z,99.90
2019-04-11T01:42:11.879Z,99.90
2019-04-11T01:44:41.011Z,99.90
2019-04-11T01:47:11.216Z,99.90
2019-04-11T01:49:40.605Z,99.90
2019-04-11T01:52:09.844Z,99.90
2019-04-11T01:54:39.539Z,99.90
2019-04-11T01:57:08.108Z,99.90
2019-04-11T01:59:37.533Z,99.90
2019-04-11T02:02:22.844Z,99.90
2019-04-11T02:04:52.927Z,99.90
2019-04-11T02:07:22.406Z,99.90
2019-04-11T02:09:51.144Z,99.90
2019-04-11T02:12:20.808Z,99.90
2019-04-11T02:14:50.156Z,99.90
2019-04-11T02:17:18.901Z,99.90
2019-04-11T02:19:48.079Z,99.90
2019-04-11T02:22:22.250Z,99.90
2019-04-11T02:25:02.154Z,99.90
2019-04-11T02:27:32.765Z,99.90
2019-04-11T02:30:03.978Z,99.90
2019-04-11T02:32:34.176Z,99.90
2019-04-11T02:35:05.151Z,99.90
2019-04-11T02:37:34.356Z,99.90
2019-04-11T02:40:05.280Z,99.90
2019-04-11T02:42:35.145Z,99.90
2019-04-11T02:45:23.122Z,99.90
2019-04-11T02:47:39.504Z,99.90
2019-04-11T02:50:08.204Z,99.90
2019-04-11T02:52:37.871Z,99.90
2019-04-11T02:55:10.114Z,99.90
2019-04-11T02:57:39.335Z,99.90
2019-04-11T03:00:10.574Z,99.90
2019-04-11T03:02:39.925Z,99.90
2019-04-11T03:05:11.378Z,99.90
2019-04-11T03:07:40.128Z,99.90
2019-04-11T03:10:09.907Z,99.90
2019-04-11T03:12:40.521Z,99.90
2019-04-11T03:15:28.732Z,99.90
2019-04-11T03:17:43.325Z,99.90
2019-04-11T03:20:19.455Z,99.90
2019-04-11T03:22:40.540Z,99.90
2019-04-11T03:25:09.491Z,99.90
2019-04-11T03:27:38.494Z,99.90
2019-04-11T03:30:12.129Z,99.90
2019-04-11T03:33:25.441Z,99.90
2019-04-11T03:36:01.070Z,99.90
2019-04-11T03:37:59.647Z,99.90
2019-04-11T03:40:25.951Z,99.90
2019-04-11T03:42:54.318Z,99.90
2019-04-11T03:45:33.217Z,99.90
2019-04-11T03:47:56.066Z,99.90
2019-04-11T03:50:16.655Z,99.90
2019-04-11T03:52:40.803Z,99.90
2019-04-11T03:55:11.091Z,99.90
2019-04-11T03:57:41.713Z,99.90
2019-04-11T04:00:13.089Z,99.90
2019-04-11T04:02:41.480Z,99.90
2019-04-11T04:05:10.749Z,99.90
2019-04-11T04:07:40.372Z,99.90
2019-04-11T04:10:13.134Z,99.90
2019-04-11T04:12:40.359Z,99.90
2019-04-11T04:15:35.790Z,99.90
2019-04-11T04:17:55.777Z,99.90
2019-04-11T04:20:29.761Z,99.90
2019-04-11T04:23:00.955Z,99.90
2019-04-11T04:25:29.939Z,99.90
2019-04-11T04:27:58.948Z,99.90
2019-04-11T04:30:29.281Z,99.90
2019-04-11T04:32:58.125Z,99.90
2019-04-11T04:35:28.386Z,99.90
2019-04-11T04:37:59.040Z,99.90
2019-04-11T04:40:46.318Z,99.90
2019-04-11T04:43:00.714Z,99.90
2019-04-11T04:45:30.254Z,99.90
2019-04-11T04:48:04.601Z,99.90
2019-04-11T04:50:30.806Z,99.90
2019-04-11T04:53:00.944Z,99.90
2019-04-11T04:55:30.277Z,99.90
2019-04-11T04:57:59.748Z,99.90
2019-04-11T05:00:31.456Z,99.90
2019-04-11T05:02:59.998Z,99.90
2019-04-11T05:05:30.795Z,99.90
2019-04-11T05:08:03.956Z,99.90
2019-04-11T05:10:32.802Z,99.90
2019-04-11T05:13:03.383Z,99.90
2019-04-11T05:15:32.450Z,99.90
2019-04-11T05:18:03.974Z,99.90
2019-04-11T05:20:32.703Z,99.90
2019-04-11T05:23:02.105Z,99.90
2019-04-11T05:25:30.708Z,99.90
2019-04-11T05:28:00.138Z,99.90
2019-04-11T05:30:29.401Z,99.90
2019-04-11T05:32:58.062Z,99.90
2019-04-11T05:35:26.952Z,99.90
2019-04-11T05:37:55.800Z,99.90
2019-04-11T05:40:24.380Z,99.90
2019-04-11T05:42:54.149Z,99.90
2019-04-11T05:45:24.927Z,99.90
2019-04-11T05:47:55.569Z,99.90
2019-04-11T05:50:26.366Z,99.90
2019-04-11T05:52:54.967Z,99.90
2019-04-11T05:55:23.903Z,99.90
2019-04-11T05:57:52.422Z,99.90
2019-04-11T06:00:25.228Z,99.90
2019-04-11T06:02:59.588Z,99.90
2019-04-11T06:05:44.742Z,99.90
2019-04-11T06:08:21.371Z,99.90
2019-04-11T06:10:56.626Z,99.90
2019-04-11T06:13:26.846Z,99.90
2019-04-11T06:15:59.745Z,99.90
2019-04-11T06:18:45.897Z,99.90
2019-04-11T06:21:16.096Z,99.90
2019-04-11T06:23:47.611Z,99.90
2019-04-11T06:26:18.855Z,99.90
2019-04-11T06:28:47.977Z,99.90
2019-04-11T06:31:18.175Z,99.90
2019-04-11T06:33:54.621Z,99.90
2019-04-11T06:36:39.832Z,99.90
2019-04-11T06:39:13.783Z,99.90
2019-04-11T06:41:59.087Z,99.90
2019-04-11T06:44:32.528Z,99.90
2019-04-11T06:47:05.578Z,97.40
2019-04-11T06:49:45.045Z,97.10
2019-04-11T06:52:15.121Z,96.90
2019-04-11T06:55:04.586Z,96.90
2019-04-11T06:57:34.196Z,97.40
2019-04-11T07:00:05.151Z,96.20
2019-04-11T07:02:35.395Z,97.60
2019-04-11T07:05:09.097Z,97.10
2019-04-11T07:07:39.332Z,96.50
2019-04-11T07:10:09.405Z,97.60
2019-04-11T07:12:45.801Z,95.80
2019-04-11T07:15:17.129Z,96.00
2019-04-11T07:18:06.105Z,95.50
2019-04-11T07:20:45.760Z,94.90
2019-04-11T07:23:32.959Z,96.30
2019-04-11T07:26:18.904Z,94.90
2019-04-11T07:29:04.604Z,93.10
2019-04-11T07:31:41.100Z,92.80
2019-04-11T07:34:31.522Z,95.20
2019-04-11T07:37:15.912Z,96.60
2019-04-11T07:39:56.143Z,97.30
2019-04-11T07:42:43.478Z,96.40
2019-04-11T07:45:17.384Z,95.50
2019-04-11T07:47:50.555Z,92.90
2019-04-11T07:50:19.878Z,92.40
2019-04-11T07:52:51.598Z,91.50
2019-04-11T07:55:21.787Z,91.30
2019-04-11T07:57:54.657Z,92.60
2019-04-11T08:00:38.586Z,90.90
2019-04-11T08:03:15.584Z,92.60
2019-04-11T08:05:58.758Z,91.50
2019-04-11T08:08:32.408Z,90.50
2019-04-11T08:11:06.602Z,90.80
2019-04-11T08:13:36.917Z,88.70
2019-04-11T08:16:07.008Z,91.20
2019-04-11T08:18:41.071Z,87.20
2019-04-11T08:21:28.323Z,89.40
2019-04-11T08:24:17.035Z,91.80
2019-04-11T08:27:03.384Z,87.90
2019-04-11T08:29:31.832Z,90.40
2019-04-11T08:32:13.956Z,88.40
2019-04-11T08:34:56.025Z,90.00
2019-04-11T08:37:27.486Z,91.70
2019-04-11T08:39:57.812Z,90.70
2019-04-11T08:42:31.471Z,90.70
2019-04-11T08:45:01.406Z,91.70
2019-04-11T08:47:41.911Z,94.40
2019-04-11T08:50:02.090Z,95.70
2019-04-11T08:52:34.772Z,98.20
2019-04-11T08:55:06.203Z,99.90
2019-04-11T08:57:36.421Z,99.90
2019-04-11T09:00:08.327Z,99.90
2019-04-11T09:02:37.748Z,99.90
2019-04-11T09:05:24.986Z,99.90
2019-04-11T09:08:04.459Z,99.90
2019-04-11T09:10:35.961Z,99.90
2019-04-11T09:13:07.054Z,99.90
2019-04-11T09:15:53.624Z,99.90
2019-04-11T09:18:22.090Z,99.90
2019-04-11T09:21:07.827Z,99.90
2019-04-11T09:23:37.765Z,99.90
2019-04-11T09:26:20.232Z,99.90
2019-04-11T09:28:49.459Z,99.90
2019-04-11T09:31:25.555Z,99.90
2019-04-11T09:34:11.752Z,99.90
2019-04-11T09:36:57.868Z,99.90
2019-04-11T09:39:35.050Z,99.90
2019-04-11T09:42:20.130Z,99.90
2019-04-11T09:44:49.343Z,99.90
2019-04-11T09:47:26.281Z,99.90
2019-04-11T09:50:05.228Z,99.90
2019-04-11T09:52:35.318Z,99.90
2019-04-11T09:55:23.388Z,99.90
2019-04-11T09:57:54.535Z,99.90
2019-04-11T10:00:41.123Z,99.90
2019-04-11T10:03:17.483Z,96.90
2019-04-11T10:05:51.638Z,97.20
2019-04-11T10:08:35.128Z,98.70
2019-04-11T10:11:22.152Z,97.60
2019-04-11T10:14:07.293Z,98.30
2019-04-11T10:16:37.448Z,94.90
2019-04-11T10:19:13.863Z,93.80
2019-04-11T10:22:02.795Z,91.30
2019-04-11T10:24:33.044Z,91.90
2019-04-11T10:27:03.146Z,94.60
2019-04-11T10:29:50.478Z,96.20
2019-04-11T10:32:21.277Z,95.30
2019-04-11T10:35:03.363Z,93.50
2019-04-11T10:37:33.852Z,94.10
2019-04-11T10:40:21.505Z,92.80
2019-04-11T10:42:51.789Z,93.60
2019-04-11T10:45:32.124Z,93.10
2019-04-11T10:48:05.476Z,95.10
2019-04-11T10:50:42.322Z,95.80
2019-04-11T10:53:11.031Z,93.80
2019-04-11T10:55:41.982Z,92.70
2019-04-11T10:58:12.951Z,96.20
2019-04-11T11:00:55.666Z,93.50
2019-04-11T11:03:27.309Z,96.10
2019-04-11T11:06:03.828Z,92.10
2019-04-11T11:08:50.566Z,93.60
2019-04-11T11:11:26.480Z,96.00
2019-04-11T11:13:56.588Z,94.00
2019-04-11T11:16:30.911Z,93.00
2019-04-11T11:19:27.376Z,93.10
2019-04-11T11:21:33.979Z,95.40
2019-04-11T11:24:10.753Z,98.60
2019-04-11T11:26:41.042Z,97.90
2019-04-11T11:29:15.780Z,94.20
2019-04-11T11:31:47.315Z,94.50
2019-04-11T11:34:22.094Z,95.10
2019-04-11T11:36:56.650Z,96.10
2019-04-11T11:39:33.397Z,96.90
2019-04-11T11:42:22.170Z,96.60
2019-04-11T11:44:59.260Z,96.50
2019-04-11T11:47:47.457Z,97.80
2019-04-11T11:50:22.147Z,97.30
2019-04-11T11:53:04.861Z,98.50
2019-04-11T11:55:35.836Z,99.90
2019-04-11T11:58:06.900Z,96.00
2019-04-11T12:00:36.705Z,98.70
2019-04-11T12:03:06.932Z,98.40
2019-04-11T12:05:37.012Z,96.50
2019-04-11T12:08:18.064Z,98.80
2019-04-11T12:10:49.306Z,96.90
2019-04-11T12:13:22.536Z,99.90
2019-04-11T12:15:53.275Z,99.90
2019-04-11T12:18:24.561Z,98.50
2019-04-11T12:20:59.136Z,98.10
2019-04-11T12:23:29.443Z,97.10
2019-04-11T12:25:58.123Z,96.20
2019-04-11T12:28:30.920Z,96.50
2019-04-11T12:31:03.751Z,98.20
2019-04-11T12:33:52.132Z,98.70
2019-04-11T12:36:23.020Z,94.40
2019-04-11T12:39:09.636Z,98.30
2019-04-11T12:41:51.856Z,95.80
2019-04-11T12:44:26.703Z,96.90
2019-04-11T12:47:12.696Z,94.30
2019-04-11T12:49:52.439Z,93.90
2019-04-11T12:52:32.833Z,94.20
2019-04-11T12:55:05.697Z,95.50
2019-04-11T12:57:52.258Z,90.90
2019-04-11T13:00:24.828Z,94.70
2019-04-11T13:03:01.164Z,93.50
2019-04-11T13:05:38.160Z,95.40
2019-04-11T13:08:24.604Z,94.20
2019-04-11T13:10:53.043Z,94.40
2019-04-11T13:13:32.012Z,95.70
2019-04-11T13:16:12.044Z,95.40
2019-04-11T13:18:53.131Z,95.10
2019-04-11T13:21:23.210Z,95.50
2019-04-11T13:23:56.013Z,92.20
2019-04-11T13:26:26.156Z,93.30
2019-04-11T13:29:05.072Z,93.50
2019-04-11T13:31:47.241Z,95.80
2019-04-11T13:34:17.592Z,93.80
2019-04-11T13:36:50.696Z,94.80
2019-04-11T13:39:21.040Z,93.60
2019-04-11T13:41:54.080Z,93.70
2019-04-11T13:44:22.621Z,94.60
2019-04-11T13:46:58.450Z,94.40
2019-04-11T13:49:28.529Z,94.70
2019-04-11T13:52:15.060Z,94.70
2019-04-11T13:54:50.831Z,92.60
2019-04-11T13:57:26.406Z,91.90
2019-04-11T14:00:12.936Z,91.10
2019-04-11T14:02:50.972Z,93.60
2019-04-11T14:05:17.976Z,91.70
2019-04-11T14:07:48.080Z,92.10
2019-04-11T14:10:18.216Z,94.40
2019-04-11T14:12:46.663Z,93.40
2019-04-11T14:15:16.904Z,93.30
2019-04-11T14:18:01.723Z,94.10
2019-04-11T14:20:42.146Z,94.30
2019-04-11T14:23:22.076Z,92.00
2019-04-11T14:25:58.067Z,93.80
2019-04-11T14:28:28.144Z,93.00
2019-04-11T14:31:10.447Z,93.40
2019-04-11T14:33:42.965Z,94.00
2019-04-11T14:36:33.666Z,94.10
2019-04-11T14:39:01.349Z,94.60
2019-04-11T14:41:34.573Z,93.50
2019-04-11T14:44:04.788Z,93.40
2019-04-11T14:46:51.553Z,94.50
2019-04-11T14:49:19.996Z,94.40
2019-04-11T14:52:02.375Z,94.00
2019-04-11T14:54:32.452Z,96.30
2019-04-11T14:57:02.639Z,96.00
2019-04-11T14:59:53.804Z,94.40
2019-04-11T15:02:25.915Z,94.70
2019-04-11T15:04:58.403Z,95.40
2019-04-11T15:07:27.414Z,94.00
2019-04-11T15:10:14.674Z,94.40
2019-04-11T15:12:45.752Z,95.60
2019-04-11T15:15:16.241Z,96.60
2019-04-11T15:17:44.848Z,96.40
2019-04-11T15:20:23.708Z,95.40
2019-04-11T15:23:06.722Z,97.10
2019-04-11T15:25:43.446Z,96.60
2019-04-11T15:28:13.560Z,96.60
2019-04-11T15:31:00.313Z,95.50
2019-04-11T15:33:46.588Z,97.20
2019-04-11T15:36:16.668Z,97.40
2019-04-11T15:38:49.513Z,98.90
2019-04-11T15:41:17.956Z,99.70
2019-04-11T15:43:51.136Z,99.60
2019-04-11T15:46:21.246Z,99.90
2019-04-11T15:49:03.140Z,99.90
2019-04-11T15:51:35.667Z,99.30
2019-04-11T15:54:15.264Z,99.10
2019-04-11T15:56:49.040Z,99.60
2019-04-11T15:59:21.659Z,99.90
2019-04-11T16:01:57.520Z,99.90
2019-04-11T16:04:30.317Z,99.90
2019-04-11T16:07:12.487Z,99.90
2019-04-11T16:09:43.052Z,99.90
2019-04-11T16:12:19.216Z,99.90
2019-04-11T16:14:49.569Z,99.90
2019-04-11T16:17:25.844Z,99.90
2019-04-11T16:19:55.884Z,99.90
2019-04-11T16:22:34.442Z,99.90
2019-04-11T16:25:04.984Z,99.90
2019-04-11T16:27:51.345Z,99.90
2019-04-11T16:30:20.481Z,99.90
2019-04-11T16:32:50.560Z,99.90
2019-04-11T16:35:23.831Z,99.90
2019-04-11T16:38:01.297Z,99.90
2019-04-11T16:40:31.420Z,99.90
2019-04-11T16:43:01.511Z,99.90
2019-04-11T16:45:31.623Z,99.90
2019-04-11T16:48:02.139Z,99.90
2019-04-11T16:50:30.634Z,99.90
2019-04-11T16:52:59.074Z,99.90
2019-04-11T16:55:27.548Z,99.90
2019-04-11T16:57:55.994Z,99.90
2019-04-11T17:00:24.436Z,99.90
2019-04-11T17:02:54.967Z,99.90
2019-04-11T17:05:24.086Z,99.90
2019-04-11T17:08:06.836Z,99.90
2019-04-11T17:10:56.725Z,99.90
2019-04-11T17:13:23.728Z,99.90
2019-04-11T17:15:53.808Z,99.90
2019-04-11T17:18:22.256Z,99.90
2019-04-11T17:20:50.719Z,99.90
2019-04-11T17:23:19.159Z,99.90
2019-04-11T17:25:52.474Z,99.90
2019-04-11T17:28:17.820Z,99.90
2019-04-11T17:30:46.268Z,99.90
2019-04-11T17:33:14.740Z,99.90
2019-04-11T17:35:43.211Z,99.90
2019-04-11T17:38:11.732Z,99.90
2019-04-11T17:40:40.351Z,99.90
2019-04-11T17:43:08.840Z,99.90
2019-04-11T17:45:37.384Z,99.90
2019-04-11T17:48:05.817Z,99.90
2019-04-11T17:50:35.060Z,99.90
2019-04-11T17:53:04.036Z,99.90
2019-04-11T17:55:32.496Z,99.90
2019-04-11T17:58:00.941Z,99.90
2019-04-11T18:00:31.058Z,99.90
2019-04-11T18:02:59.583Z,99.90
2019-04-11T18:05:28.085Z,99.90
2019-04-11T18:07:56.544Z,99.90
2019-04-11T18:10:25.949Z,99.90
2019-04-11T18:12:56.314Z,99.90
2019-04-11T18:15:25.204Z,99.90
2019-04-11T18:17:53.697Z,99.90
2019-04-11T18:20:22.288Z,99.90
2019-04-11T18:22:50.808Z,99.90
2019-04-11T18:25:20.915Z,99.90
2019-04-11T18:27:51.763Z,99.90
2019-04-11T18:30:20.939Z,99.90
2019-04-11T18:32:50.146Z,99.90
2019-04-11T18:35:18.620Z,99.90
2019-04-11T18:37:47.064Z,99.90
2019-04-11T18:40:17.489Z,99.90
2019-04-11T18:42:45.932Z,99.90
2019-04-11T18:45:15.939Z,99.90
2019-04-11T18:47:44.380Z,99.90
2019-04-11T18:50:13.368Z,99.90
2019-04-11T18:52:41.812Z,99.90
2019-04-11T18:55:10.362Z,99.90
2019-04-11T18:57:38.897Z,99.90
2019-04-11T19:00:10.435Z,99.90
2019-04-11T19:02:40.223Z,99.90
2019-04-11T19:05:10.941Z,99.90
2019-04-11T19:07:42.805Z,99.90
2019-04-11T19:10:14.473Z,99.90
2019-04-11T19:12:40.978Z,99.90
2019-04-11T19:15:10.364Z,99.90
2019-04-11T19:17:38.848Z,99.90
2019-04-11T19:20:07.733Z,99.90
2019-04-11T19:22:38.152Z,99.90
2019-04-11T19:25:06.697Z,99.90
2019-04-11T19:27:35.236Z,99.90
2019-04-11T19:30:05.821Z,99.90
2019-04-11T19:32:34.293Z,99.90
2019-04-11T19:35:06.342Z,99.90
2019-04-11T19:37:34.804Z,99.90
2019-04-11T19:40:04.369Z,99.90
2019-04-11T19:42:32.837Z,99.90
2019-04-11T19:45:02.884Z,99.90
2019-04-11T19:47:31.630Z,99.90
2019-04-11T19:50:00.984Z,99.90
2019-04-11T19:52:29.914Z,99.90
2019-04-11T19:55:04.742Z,99.90
2019-04-11T19:57:31.461Z,99.90
2019-04-11T20:00:00.895Z,99.90
2019-04-11T20:02:29.437Z,99.90
2019-04-11T20:04:58.417Z,99.90
2019-04-11T20:07:26.935Z,99.90
2019-04-11T20:09:55.400Z,99.90
2019-04-11T20:12:23.844Z,99.90
2019-04-11T20:14:52.306Z,99.90
2019-04-11T20:17:20.760Z,99.90
2019-04-11T20:20:00.679Z,99.90
2019-04-11T20:22:19.497Z,99.90
2019-04-11T20:24:47.946Z,99.90
2019-04-11T20:27:20.004Z,99.90
2019-04-11T20:29:51.053Z,99.90
2019-04-11T20:32:16.760Z,99.90
2019-04-11T20:34:45.232Z,99.90
2019-04-11T20:37:13.802Z,99.90
2019-04-11T20:39:46.402Z,99.90
2019-04-11T20:42:12.553Z,99.90
2019-04-11T20:44:41.064Z,99.90
2019-04-11T20:47:09.540Z,99.90
2019-04-11T20:49:39.624Z,99.90
2019-04-11T20:52:08.096Z,99.90
2019-04-11T20:54:38.497Z,99.90
2019-04-11T20:57:06.752Z,99.90
2019-04-11T20:59:35.301Z,99.90
2019-04-11T21:02:03.991Z,99.90
2019-04-11T21:04:32.536Z,99.90
2019-04-11T21:07:02.084Z,99.90
2019-04-11T21:09:33.226Z,99.90
2019-04-11T21:12:01.337Z,99.90
2019-04-11T21:14:29.812Z,99.90
2019-04-11T21:16:58.284Z,99.90
2019-04-11T21:19:26.759Z,99.90
2019-04-11T21:21:55.281Z,99.90
2019-04-11T21:24:23.846Z,99.90
2019-04-11T21:26:52.296Z,99.90
2019-04-11T21:29:20.759Z,99.90
2019-04-11T21:31:49.992Z,99.90
2019-04-11T21:34:18.464Z,99.90
2019-04-11T21:36:46.913Z,99.90
2019-04-11T21:39:15.360Z,99.90
2019-04-11T21:41:45.300Z,99.90
2019-04-11T21:44:13.891Z,99.90
2019-04-11T21:46:42.336Z,99.90
2019-04-11T21:49:10.808Z,99.90
2019-04-11T21:51:42.291Z,99.90
2019-04-11T21:54:09.447Z,99.90
2019-04-11T21:56:37.909Z,99.90
2019-04-11T21:59:06.356Z,99.90
2019-04-11T22:01:36.810Z,99.90
2019-04-11T22:04:05.289Z,99.90
2019-04-11T22:06:33.805Z,99.90
2019-04-11T22:09:04.806Z,99.90
2019-04-11T22:11:32.460Z,99.90
2019-04-11T22:14:00.931Z,99.90
2019-04-11T22:16:29.404Z,99.90
2019-04-11T22:18:57.871Z,99.90
2019-04-11T22:21:26.341Z,99.90
2019-04-11T22:23:54.940Z,99.90
2019-04-11T22:26:23.426Z,99.90
2019-04-11T22:28:54.896Z,99.90
2019-04-11T22:31:24.743Z,99.90
2019-04-11T22:34:00.185Z,99.90
2019-04-11T22:36:30.742Z,99.90
2019-04-11T22:39:01.058Z,99.90
2019-04-11T22:41:30.056Z,99.90
2019-04-11T22:43:58.501Z,99.90
2019-04-11T22:46:26.974Z,99.90
2019-04-11T22:48:55.445Z,99.90
2019-04-11T22:51:23.896Z,99.90
2019-04-11T22:54:00.266Z,99.90
2019-04-11T22:56:22.567Z,99.90
2019-04-11T22:58:51.038Z,99.90
2019-04-11T23:01:19.511Z,99.90
2019-04-11T23:03:49.705Z,99.90
2019-04-11T23:06:18.215Z,99.90
2019-04-11T23:08:48.523Z,99.90
2019-04-11T23:11:16.864Z,99.90
2019-04-11T23:13:45.715Z,99.90
2019-04-11T23:16:15.057Z,99.90
2019-04-11T23:18:44.213Z,99.90
2019-04-11T23:21:14.341Z,99.90
2019-04-11T23:23:43.517Z,99.90
2019-04-11T23:26:11.956Z,99.90
2019-04-11T23:28:40.400Z,99.90
2019-04-11T23:31:08.864Z,99.90
2019-04-11T23:33:37.336Z,99.90
2019-04-11T23:36:05.885Z,99.90
2019-04-11T23:38:34.368Z,99.90
2019-04-11T23:41:06.608Z,99.90
2019-04-11T23:43:35.080Z,99.90
2019-04-11T23:46:03.561Z,99.90
2019-04-11T23:48:32.035Z,99.90
2019-04-11T23:51:00.481Z,99.90
2019-04-11T23:53:29.292Z,99.90
2019-04-11T23:55:59.964Z,99.90
2019-04-11T23:58:31.838Z,99.90
